Terminal Aerodrome Forecast
Issued by NWS

Home | Current Version | Previous Version | Graphics & Text | Print | Product List | Glossary On
Versions: 1 2 3 4 5 6 7 8 9 10 11 12 13 14 15 16 17
369
FTUS43 KABR 021125
TAFMBG
TAF
KMBG 021125Z 0212/0312 13008KT P6SM BKN200
     FM021700 27008KT P6SM -SHRA OVC050
     FM030100 VRB05KT P6SM SCT200=

USA.gov is the U.S. government's official web portal to all federal, state and local government web resources and services.